Flight Track Log - Related Links

Times and Time Zones

All times are in EDT time to prevent confusion due to time zone crossing. See the UAL752 flight status page for this flight to view local times or setup timezone preferences in your user account.

Time Position Orientation Groundspeed Altitude Reporting Facility
EDT Latitude Longitude Course Direction KTS MPH feet Rate Location/Type
Tue 12:20:04 PM 39.9000 -104.6833 90° East 187 215 6,600  Level Denver TRACON
Tue 12:21:04 PM 39.9333 -104.6333 49° Northeast 238 274 7,700 1,200 Climbing Denver TRACON
Tue 12:22:04 PM 39.9500 -104.5333 78° East 301 346 9,000 1,211 Climbing Denver TRACON
Tue 12:22:58 PM 39.9500 -104.4333 90° East 304 350 10,000 1,500 Climbing Denver TRACON
Tue 12:23:00 PM 39.8667 -104.0298 90° East  Level FlightAware Approximate
Tue 12:23:52 PM 39.9500 -104.3333 90° East 315 362 11,700  Level Denver TRACON
Tue 12:24:00 PM 39.8667 -103.8702 90° East  Level FlightAware Approximate
Tue 12:25:00 PM 39.8833 -103.7141 90° East  Level FlightAware Approximate
Tue 12:25:18 PM 39.9286 -104.1658 99° East 324 373 14,800  Level Denver Center
Tue 12:26:20 PM 39.9153 -104.0469 98° East 332 382 16,400 1,306 Climbing Denver Center
Tue 12:27:22 PM 39.9014 -103.9117 98° East 380 437 17,500 1,210 Climbing Denver Center
Tue 12:28:24 PM 39.8856 -103.7594 98° East 395 455 18,900 1,452 Climbing Denver Center
Tue 12:29:26 PM 39.8950 -103.6272 85° East 402 463 20,500 1,536 Climbing Denver Center
Tue 12:30:29 PM 39.9156 -103.4503 81° East 412 474 22,100 1,488 Climbing Denver Center
Tue 12:31:31 PM 39.9328 -103.2983 82° East 422 486 23,600 1,355 Climbing Denver Center
Tue 12:32:33 PM 39.9503 -103.1422 82° East 434 499 24,900 1,161 Climbing Denver Center
Tue 12:33:35 PM 39.9681 -102.9822 82° East 446 513 26,000 1,016 Climbing Denver Center
Tue 12:34:37 PM 39.9847 -102.8183 82° East 453 521 27,000 968 Climbing Denver Center
Tue 12:35:39 PM 40.0031 -102.6464 82° East 465 535 28,000 968 Climbing Denver Center
Tue 12:36:41 PM 40.0247 -102.4558 81° East 472 543 29,000 871 Climbing Denver Center
Tue 12:37:43 PM 40.0414 -102.2875 83° East 483 556 29,800 871 Climbing Denver Center
Tue 12:38:45 PM 40.0625 -102.0886 82° East 496 571 30,800 581 Climbing Denver Center
Tue 12:39:47 PM 40.0789 -101.9169 83° East 499 574 31,000 97 Climbing Denver Center
Tue 12:40:49 PM 40.0992 -101.7142 82° East 503 579 31,000 384 Level Denver Center
Tue 12:41:52 PM 40.1164 -101.5394 83° East 507 583 31,800 912 Climbing Denver Center
Tue 12:42:54 PM 40.1356 -101.3364 83° East 507 583 32,900 919 Climbing Denver Center
Tue 12:43:56 PM 40.1511 -101.1639 83° East 507 583 33,700 871 Climbing Denver Center
Tue 12:44:58 PM 40.1703 -100.9622 83° East 502 578 34,700 823 Climbing Denver Center
Tue 12:46:00 PM 40.1853 -100.7906 83° East 502 578 35,400 677 Climbing Denver Center
Tue 12:47:02 PM 40.2042 -100.5889 83° East 502 578 36,100 484 Climbing Denver Center
Tue 12:48:04 PM 40.2386 -100.4239 75° East 498 573 36,400 435 Climbing Denver Center
Tue 12:49:06 PM 40.2781 -100.2261 75° East 500 575 37,000 290 Climbing Denver Center
Tue 12:50:08 PM 40.3111 -100.0639 75° East 492 566 37,000  Level Denver Center
Tue 12:51:10 PM 40.3483 -99.8781 75° East 492 566 37,000  Level Denver Center
Tue 12:52:12 PM 40.3822 -99.7039 76° East 492 566 37,000  Level Denver Center
Tue 12:53:14 PM 40.4167 -99.5311 75° East 492 566 37,000  Level Denver Center
Tue 12:54:17 PM 40.4569 -99.3219 76° East 493 567 37,000  Level Denver Center
Tue 12:55:19 PM 40.4900 -99.1492 76° East 493 567 37,000  Level Denver Center
Tue 12:56:21 PM 40.5228 -98.9747 76° East 492 566 37,000  Level Denver Center
Tue 12:57:28 PM 40.5617 -98.7681 76° East 494 568 37,000  Level Minneapolis Center
Tue 12:58:30 PM 40.5947 -98.5936 76° East 494 568 37,000  Level Minneapolis Center
Tue 12:59:32 PM 40.6269 -98.4181 76° East 494 568 37,000  Level Minneapolis Center
Tue 01:00:36 PM 40.6594 -98.2433 76° East 494 568 37,000  Level Minneapolis Center
Tue 01:01:38 PM 40.6908 -98.0675 77° East 495 570 37,000  Level Minneapolis Center
Tue 01:02:40 PM 40.7303 -97.8536 76° East 498 573 37,000  Level Minneapolis Center
Tue 01:03:42 PM 40.7614 -97.6764 77° East 498 573 37,000  Level Minneapolis Center
Tue 01:04:44 PM 40.7928 -97.5008 77° East 498 573 37,000  Level Minneapolis Center
Tue 01:05:47 PM 40.8236 -97.3183 77° East 497 572 37,000  Level Minneapolis Center
Tue 01:06:49 PM 40.8547 -97.1419 77° East 497 572 37,000  Level Minneapolis Center
Tue 01:07:51 PM 40.8856 -96.9672 77° East 495 570 37,000  Level Minneapolis Center
Tue 01:08:53 PM 40.9200 -96.7556 78° East 494 568 37,000  Level Minneapolis Center
Tue 01:09:55 PM 40.9458 -96.5792 79° East 493 567 37,000  Level Minneapolis Center
Tue 01:10:57 PM 40.9694 -96.4028 80° East 493 567 37,000  Level Minneapolis Center
Tue 01:11:59 PM 40.9928 -96.2275 80° East 492 566 37,000  Level Minneapolis Center
Tue 01:13:01 PM 41.0158 -96.0536 80° East 490 564 37,000  Level Minneapolis Center
Tue 01:14:03 PM 41.0428 -95.8425 80° East 490 564 37,000  Level Minneapolis Center
Tue 01:15:05 PM 41.0664 -95.6667 80° East 490 564 37,000  Level Minneapolis Center
Tue 01:16:07 PM 41.0900 -95.4922 80° East 490 564 37,000  Level Minneapolis Center
Tue 01:17:10 PM 41.1133 -95.3150 80° East 489 563 37,000  Level Minneapolis Center
Tue 01:18:12 PM 41.1353 -95.1378 81° East 489 563 37,000  Level Minneapolis Center
Tue 01:19:14 PM 41.1622 -94.9264 80° East 489 563 37,000  Level Minneapolis Center
Tue 01:20:16 PM 41.1842 -94.7508 81° East 488 562 37,000  Level Minneapolis Center
Tue 01:21:18 PM 41.2044 -94.5753 81° East 486 559 37,000  Level Minneapolis Center
Tue 01:22:20 PM 41.2261 -94.3986 81° East 486 559 37,000  Level Minneapolis Center
Tue 01:23:22 PM 41.2492 -94.2050 81° East 486 559 37,000  Level Minneapolis Center
Tue 01:24:24 PM 41.2689 -94.0300 81° East 486 559 37,000  Level Minneapolis Center
Tue 01:25:26 PM 41.2892 -93.8547 81° East 485 558 37,000  Level Minneapolis Center
Tue 01:26:28 PM 41.3089 -93.6786 81° East 485 558 37,000  Level Minneapolis Center
Tue 01:27:30 PM 41.3289 -93.5022 81° East 485 558 37,000  Level Minneapolis Center
Tue 01:28:33 PM 41.3511 -93.2917 82° East 485 558 37,000  Level Minneapolis Center
Tue 01:29:35 PM 41.3703 -93.1147 82° East 485 558 37,000  Level Minneapolis Center
Tue 01:30:37 PM 41.3889 -92.9397 82° East 484 557 37,000  Level Minneapolis Center
Tue 01:31:39 PM 41.4072 -92.7639 82° East 484 557 37,000  Level Minneapolis Center
Tue 01:32:41 PM 41.4250 -92.5889 82° East 483 556 37,000  Level Minneapolis Center
Tue 01:33:43 PM 41.4464 -92.3778 82° East 483 556 37,000  Level Minneapolis Center
Tue 01:34:45 PM 41.4628 -92.2042 83° East 481 554 37,000  Level Minneapolis Center
Tue 01:35:47 PM 41.4628 -92.0278 90° East 481 554 37,000  Level Minneapolis Center
Tue 01:36:49 PM 41.4478 -91.8481 96° East 483 556 37,000  Level Minneapolis Center
Tue 01:38:06 PM 41.4294 -91.6272 96° East 482 555 37,000  Level Chicago Center
Tue 01:39:08 PM 41.4153 -91.4494 96° East 482 555 37,000  Level Chicago Center
Tue 01:40:11 PM 41.3969 -91.2381 97° East 481 554 37,000  Level Chicago Center
Tue 01:41:13 PM 41.3819 -91.0617 96° East 481 554 37,000  Level Chicago Center
Tue 01:42:15 PM 41.3658 -90.8861 97° East 480 552 37,000  Level Chicago Center
Tue 01:43:17 PM 41.3508 -90.7097 96° East 479 551 37,000  Level Chicago Center
Tue 01:44:19 PM 41.3347 -90.5297 97° East 480 552 37,000  Level Chicago Center
Tue 01:45:21 PM 41.3189 -90.3528 97° East 485 558 37,000  Level Chicago Center
Tue 01:46:23 PM 41.3025 -90.1758 97° East 485 558 37,000  Level Chicago Center
Tue 01:47:25 PM 41.2819 -89.9622 97° East 484 557 37,000  Level Chicago Center
Tue 01:48:27 PM 41.2647 -89.7861 97° East 482 555 37,000  Level Chicago Center
Tue 01:49:30 PM 41.2469 -89.6067 97° East 482 555 37,000  Level Chicago Center
Tue 01:50:32 PM 41.2278 -89.4267 98° East 485 558 37,000  Level Chicago Center
Tue 01:51:34 PM 41.2103 -89.2494 97° East 484 557 37,000  Level Chicago Center
Tue 01:52:36 PM 41.1889 -89.0464 98° East 484 557 37,000  Level Chicago Center
Tue 01:53:38 PM 41.1692 -88.8697 98° East 485 558 37,000  Level Chicago Center
Tue 01:54:40 PM 41.1497 -88.6933 98° East 488 562 37,000  Level Chicago Center
Tue 01:55:42 PM 41.1311 -88.5156 98° East 490 564 37,000  Level Chicago Center
Tue 01:56:44 PM 41.1114 -88.3447 99° East 478 550 37,000  Level Chicago Center
Tue 01:57:47 PM 41.0881 -88.1386 98° East 477 549 37,000  Level Chicago Center
Tue 01:58:49 PM 41.0697 -87.9686 98° East 472 543 37,000 -48 Level Chicago Center
Tue 01:59:51 PM 41.0500 -87.8011 99° East 469 540 36,900  Descending Chicago Center
Tue 02:00:53 PM 41.0317 -87.6325 98° East 469 540 37,000 48 Climbing Chicago Center
Tue 02:01:56 PM 41.0081 -87.4292 99° East 470 541 37,000  Level Chicago Center
Tue 02:02:58 PM 40.9869 -87.2575 99° East 471 542 37,000  Level Chicago Center
Tue 02:04:00 PM 40.9667 -87.0881 99° East 471 542 37,000  Level Chicago Center
Tue 02:05:02 PM 40.9456 -86.9181 99° East 471 542 37,000  Level Chicago Center
Tue 02:06:05 PM 40.9242 -86.7486 99° East 471 542 37,000  Level Chicago Center
Tue 02:07:07 PM 40.9019 -86.5703 99° East 471 542 37,000  Level Chicago Center
Tue 02:08:09 PM 40.8806 -86.4017 99° East 470 541 37,000  Level Chicago Center
Tue 02:09:11 PM 40.8533 -86.2003 100° East 469 540 37,000  Level Chicago Center
Tue 02:10:13 PM 40.8319 -86.0319 99° East 469 540 37,000  Level Chicago Center
Tue 02:11:15 PM 40.8097 -85.8678 100° East 463 533 37,000  Level Chicago Center
Tue 02:12:17 PM 40.7881 -85.7011 100° East 463 533 37,000  Level Chicago Center
Tue 02:13:20 PM 40.7658 -85.5339 100° East 464 534 37,000  Level Chicago Center
Tue 02:14:22 PM 40.7378 -85.3339 100° East 466 536 37,000  Level Chicago Center
Tue 02:15:24 PM 40.7131 -85.1606 101° East 478 550 37,000  Level Chicago Center
Tue 02:16:26 PM 40.6892 -84.9919 101° East 477 549 37,000 48 Level Chicago Center
Tue 02:17:28 PM 40.6661 -84.8261 100° East 470 541 37,100  Climbing Chicago Center
Tue 02:18:30 PM 40.6431 -84.6631 101° East 461 531 37,000 -48 Descending Chicago Center
Tue 02:19:32 PM 40.6139 -84.4692 101° East 454 522 37,000  Level Chicago Center
Tue 02:20:06 PM 40.6031 -84.3911 100° East 455 524 37,000  Level Cleveland Center
Tue 02:21:00 PM 40.5847 -84.2619 101° East 452 520 37,000  Level Indianapolis Center
Tue 02:22:02 PM 40.5556 -84.0681 101° East 452 520 37,000  Level Indianapolis Center
Tue 02:23:04 PM 40.5300 -83.9058 102° East 452 520 37,000  Level Indianapolis Center
Tue 02:24:06 PM 40.5053 -83.7392 101° East 457 526 37,000  Level Indianapolis Center
Tue 02:25:08 PM 40.4797 -83.5722 101° East 461 531 37,000 49 Level Indianapolis Center
Tue 02:26:09 PM 40.4539 -83.4056 101° East 463 533 37,100  Climbing Indianapolis Center
Tue 02:27:11 PM 40.4272 -83.2386 102° East 463 533 37,000 -48 Descending Indianapolis Center
Tue 02:28:13 PM 40.4019 -83.0747 101° East 462 532 37,000  Level Indianapolis Center
Tue 02:29:16 PM 40.3700 -82.8792 102° East 457 526 37,000  Level Indianapolis Center
Tue 02:30:18 PM 40.3461 -82.7311 102° East 457 526 37,000  Level Indianapolis Center
Tue 02:31:19 PM 40.3183 -82.5686 103° East 457 526 37,000  Level Indianapolis Center
Tue 02:32:21 PM 40.2875 -82.3781 102° East 457 526 37,000  Level Indianapolis Center
Tue 02:33:23 PM 40.2611 -82.2153 102° East 457 526 37,000  Level Indianapolis Center
Tue 02:34:25 PM 40.2350 -82.0653 103° East 458 527 37,000  Level Indianapolis Center
Tue 02:35:27 PM 40.2078 -81.9006 102° East 459 528 37,000  Level Indianapolis Center
Tue 02:36:40 PM 40.1722 -81.6897 102° East 461 531 37,000  Level Cleveland Center
Tue 02:37:42 PM 40.1425 -81.5267 103° East 461 531 37,000  Level Cleveland Center
Tue 02:38:44 PM 40.1150 -81.3672 103° East 456 525 37,000  Level Cleveland Center
Tue 02:39:46 PM 40.0819 -81.1775 103° East 454 522 37,000  Level Cleveland Center
Tue 02:40:48 PM 40.0528 -81.0189 103° East 451 519 37,000  Level Cleveland Center
Tue 02:41:50 PM 40.0244 -80.8614 103° East 451 519 37,000  Level Cleveland Center
Tue 02:42:52 PM 39.9953 -80.7072 104° East 444 511 37,000  Level Cleveland Center
Tue 02:43:54 PM 39.9644 -80.5525 105° East 445 512 37,000  Level Cleveland Center
Tue 02:44:57 PM 39.9258 -80.3697 105° East 443 510 37,000  Level Cleveland Center
Tue 02:45:59 PM 39.8956 -80.2183 105° East 438 504 37,000 -387 Level Cleveland Center
Tue 02:47:01 PM 39.8642 -80.0644 105° East 441 507 36,200 -871 Descending Cleveland Center
Tue 02:48:03 PM 39.8328 -79.9142 105° East 435 501 35,200 -968 Descending Cleveland Center
Tue 02:49:05 PM 39.8008 -79.7583 105° East 444 511 34,200 -1,548 Descending Cleveland Center
Tue 02:50:07 PM 39.7625 -79.5739 105° East 445 512 32,000 -1,113 Descending Cleveland Center
Tue 02:51:09 PM 39.7300 -79.4167 105° East 450 518 31,900 -1,645 Descending Cleveland Center
Tue 02:52:11 PM 39.6950 -79.2558 106° East 463 533 28,600 -3,048 Descending Cleveland Center
Tue 02:53:13 PM 39.6617 -79.0958 105° East 464 534 25,600 -1,824 Descending Cleveland Center
Tue 02:54:16 PM 39.6242 -78.9211 106° East 465 535 24,800 -1,344 Descending Cleveland Center
Tue 02:55:18 PM 39.5892 -78.7589 106° East 469 540 22,800 -2,661 Descending Cleveland Center
Tue 02:56:20 PM 39.5544 -78.6008 106° East 449 517 19,300 -2,855 Descending Cleveland Center
Tue 02:57:22 PM 39.5233 -78.4514 105° East 443 510 16,900 -2,064 Descending Cleveland Center
Tue 02:58:25 PM 39.4839 -78.2775 106° East 422 486 15,000 -927 Descending Cleveland Center
Tue 02:59:25 PM 39.4494 -78.1342 107° East 421 484 15,000 -339 Level Washington Center
Tue 03:00:29 PM 39.4186 -77.9872 105° East 420 483 14,300 -1,381 Descending Cleveland Center
Tue 03:01:31 PM 39.4172 -77.8431 91° East 403 464 12,100 -1,590 Descending Cleveland Center
Tue 03:02:26 PM 39.4219 -77.7192 87° East 405 466 11,200 -574 Descending Washington Center
Tue 03:03:26 PM 39.4306 -77.5772 85° East 393 452 11,000 -100 Descending Washington Center
Tue 03:04:26 PM 39.4411 -77.4378 84° East 393 452 11,000  Level Washington Center
Tue 03:05:24 PM 39.4500 -77.3000 85° East 325 374 11,000 -559 Level Potomac TRACON
Tue 03:06:24 PM 39.4667 -77.1833 79° East 304 350 9,900 -1,450 Descending Potomac TRACON
Tue 03:07:24 PM 39.4833 -77.0833 78° East 297 342 8,100 -1,686 Descending Potomac TRACON
Tue 03:08:25 PM 39.5000 -76.9833 78° East 292 336 6,500 -1,091 Descending Potomac TRACON
Tue 03:09:25 PM 39.5000 -76.8833 90° East 289 333 5,900 -1,050 Descending Potomac TRACON
Tue 03:10:25 PM 39.4500 -76.8167 134° Southeast 272 313 4,400 -950 Descending Potomac TRACON
Tue 03:11:25 PM 39.3833 -76.8333 191° South 270 311 4,000 -200 Descending Potomac TRACON
Tue 03:12:25 PM 39.3500 -76.9000 237° Southwest 213 245 4,000  Level Potomac TRACON
Tue 03:13:19 PM 39.3333 -76.9500 247° West 188 216 4,000  Level Potomac TRACON
Tue 03:14:19 PM 39.3000 -77.0000 229° Southwest 178 205 4,000  Level Potomac TRACON
Tue 03:15:19 PM 39.2500 -77.0000 180° South 175 201 4,000 -99 Level Potomac TRACON
Tue 03:16:20 PM 39.2000 -77.0167 194° South 161 185 3,800 -496 Descending Potomac TRACON
Tue 03:17:20 PM 39.1833 -76.9667 113° Southeast 162 186 3,000 -400 Descending Potomac TRACON
Tue 03:18:20 PM 39.1833 -76.9000 90° East 161 185 3,000 -250 Level Potomac TRACON
Tue 03:19:20 PM 39.1833 -76.8500 90° East 150 173 2,500 -550 Descending Potomac TRACON
Tue 03:20:20 PM 39.1833 -76.8000 90° East 142 163 1,900 -700 Descending Potomac TRACON
Tue 03:21:20 PM 39.1833 -76.7500 90° East 137 158 1,100 -750 Descending Potomac TRACON
Tue 03:22:20 PM 39.1833 -76.7000 90° East 135 155 400 -700 Descending Potomac TRACON

Login

Don't have an account? Register now (free) for customized features, flight alerts, and more!